createdAt,value
2019-03-04T00:01:03.682Z,10.25
2019-03-04T00:03:34.313Z,10.23
2019-03-04T00:06:05.041Z,10.23
2019-03-04T00:08:35.681Z,10.25
2019-03-04T00:11:06.214Z,10.22
2019-03-04T00:13:36.698Z,10.24
2019-03-04T00:16:07.272Z,10.24
2019-03-04T00:18:37.903Z,10.26
2019-03-04T00:21:08.387Z,10.28
2019-03-04T00:23:38.963Z,10.31
2019-03-04T00:26:09.503Z,10.27
2019-03-04T00:28:40.022Z,10.25
2019-03-04T00:31:10.653Z,10.24
2019-03-04T00:33:41.185Z,10.22
2019-03-04T00:36:11.703Z,10.23
2019-03-04T00:38:42.243Z,10.25
2019-03-04T00:41:12.774Z,10.26
2019-03-04T00:43:43.305Z,10.27
2019-03-04T00:46:13.836Z,10.31
2019-03-04T00:48:44.364Z,10.37
2019-03-04T00:51:15.370Z,10.38
2019-03-04T00:53:46.151Z,10.41
2019-03-04T00:56:16.779Z,10.42
2019-03-04T00:58:48.331Z,10.44
2019-03-04T01:01:18.880Z,10.40
2019-03-04T01:03:49.519Z,10.42
2019-03-04T01:06:20.072Z,10.49
2019-03-04T01:08:51.683Z,10.47
2019-03-04T01:11:22.219Z,10.50
2019-03-04T01:13:52.857Z,10.50
2019-03-04T01:16:23.385Z,10.52
2019-03-04T01:18:53.869Z,10.56
2019-03-04T01:21:24.402Z,10.60
2019-03-04T01:23:54.975Z,10.62
2019-03-04T01:26:25.607Z,10.64
2019-03-04T01:28:56.232Z,10.67
2019-03-04T01:31:26.873Z,10.63
2019-03-04T01:33:57.349Z,10.56
2019-03-04T01:36:27.934Z,10.59
2019-03-04T01:38:58.464Z,10.65
2019-03-04T01:41:29.094Z,10.66
2019-03-04T01:43:59.628Z,10.63
2019-03-04T01:46:30.155Z,10.67
2019-03-04T01:49:00.719Z,10.69
2019-03-04T01:51:31.204Z,10.68
2019-03-04T01:54:02.054Z,10.66
2019-03-04T01:56:32.589Z,10.63
2019-03-04T01:59:03.391Z,10.66
2019-03-04T02:01:33.953Z,10.61
2019-03-04T02:04:04.483Z,10.63
2019-03-04T02:06:35.113Z,10.63
2019-03-04T02:09:06.673Z,10.65
2019-03-04T02:11:39.180Z,10.65
2019-03-04T02:14:09.678Z,10.67
2019-03-04T02:16:40.155Z,10.67
2019-03-04T02:19:10.836Z,10.69
2019-03-04T02:21:41.476Z,10.70
2019-03-04T02:24:25.588Z,10.72
2019-03-04T02:26:56.053Z,10.74
2019-03-04T02:29:26.588Z,10.72
2019-03-04T02:31:57.196Z,10.69
2019-03-04T02:34:27.745Z,10.70
2019-03-04T02:36:58.319Z,10.77
2019-03-04T02:39:28.853Z,10.77
2019-03-04T02:41:59.546Z,10.69
2019-03-04T02:44:30.116Z,10.71
2019-03-04T02:47:00.709Z,10.69
2019-03-04T02:49:31.337Z,10.71
2019-03-04T02:52:01.863Z,10.72
2019-03-04T02:54:32.509Z,10.67
2019-03-04T02:57:03.037Z,10.64
2019-03-04T02:59:33.531Z,10.60
2019-03-04T03:02:05.731Z,10.59
2019-03-04T03:04:36.363Z,10.56
2019-03-04T03:07:07.101Z,10.50
2019-03-04T03:09:37.730Z,10.50
2019-03-04T03:12:08.470Z,10.50
2019-03-04T03:14:39.041Z,10.41
2019-03-04T03:17:10.103Z,10.43
2019-03-04T03:19:40.675Z,10.40
2019-03-04T03:22:11.207Z,10.33
2019-03-04T03:24:42.965Z,10.24
2019-03-04T03:27:13.497Z,10.20
2019-03-04T03:29:44.035Z,10.15
2019-03-04T03:32:14.568Z,10.14
2019-03-04T03:34:45.185Z,10.04
2019-03-04T03:37:15.827Z,10.00
2019-03-04T03:39:46.359Z,9.95
2019-03-04T03:42:19.037Z,9.94
2019-03-04T03:44:49.148Z,9.88
2019-03-04T03:47:19.889Z,9.84
2019-03-04T03:49:50.419Z,9.81
2019-03-04T03:52:20.950Z,9.73
2019-03-04T03:54:55.266Z,9.71
2019-03-04T03:57:25.847Z,9.73
2019-03-04T03:59:56.437Z,9.69
2019-03-04T04:02:26.976Z,9.66
2019-03-04T04:04:57.499Z,9.61
2019-03-04T04:07:28.049Z,9.55
2019-03-04T04:09:58.557Z,9.51
2019-03-04T04:12:29.192Z,9.52
2019-03-04T04:14:59.721Z,9.51
2019-03-04T04:17:30.255Z,9.55
2019-03-04T04:20:00.719Z,9.56
2019-03-04T04:22:31.519Z,9.60
2019-03-04T04:25:02.148Z,9.61
2019-03-04T04:27:32.779Z,9.61
2019-03-04T04:30:04.129Z,9.60
2019-03-04T04:32:34.756Z,9.59
2019-03-04T04:35:06.376Z,9.67
2019-03-04T04:37:36.948Z,9.77
2019-03-04T04:40:10.858Z,9.87
2019-03-04T04:42:41.390Z,9.92
2019-03-04T04:45:12.021Z,9.94
2019-03-04T04:47:43.774Z,9.88
2019-03-04T04:50:23.524Z,9.87
2019-03-04T04:52:53.998Z,9.89
2019-03-04T04:55:24.586Z,9.93
2019-03-04T04:57:55.073Z,10.02
2019-03-04T05:00:25.645Z,10.07
2019-03-04T05:02:56.180Z,10.15
2019-03-04T05:05:26.675Z,10.12
2019-03-04T05:07:57.237Z,10.17
2019-03-04T05:10:27.879Z,10.19
2019-03-04T05:12:58.511Z,10.23
2019-03-04T05:15:29.139Z,10.28
2019-03-04T05:17:59.636Z,10.30
2019-03-04T05:20:30.207Z,10.32
2019-03-04T05:23:00.695Z,10.21
2019-03-04T05:25:31.260Z,10.12
2019-03-04T05:28:01.904Z,10.07
2019-03-04T05:30:32.433Z,10.04
2019-03-04T05:33:02.965Z,10.02
2019-03-04T05:35:33.696Z,9.99
2019-03-04T05:38:05.143Z,10.05
2019-03-04T05:40:35.784Z,10.13
2019-03-04T05:43:06.315Z,10.17
2019-03-04T05:45:36.794Z,10.11
2019-03-04T05:48:07.785Z,10.19
2019-03-04T05:50:38.580Z,10.17
2019-03-04T05:53:09.151Z,10.19
2019-03-04T05:55:39.625Z,10.11
2019-03-04T05:58:10.212Z,10.17
2019-03-04T06:00:42.990Z,10.21
2019-03-04T06:03:16.771Z,10.19
2019-03-04T06:05:47.431Z,10.22
2019-03-04T06:08:17.963Z,10.23
2019-03-04T06:10:48.435Z,10.27
2019-03-04T06:13:19.025Z,10.38
2019-03-04T06:15:49.553Z,10.51
2019-03-04T06:18:20.293Z,10.52
2019-03-04T06:20:50.826Z,10.41
2019-03-04T06:23:21.329Z,10.38
2019-03-04T06:25:51.931Z,10.48
2019-03-04T06:28:22.514Z,10.44
2019-03-04T06:30:53.024Z,10.44
2019-03-04T06:33:23.610Z,10.67
2019-03-04T06:35:54.138Z,10.80
2019-03-04T06:38:24.748Z,10.93
2019-03-04T06:40:55.378Z,11.02
2019-03-04T06:43:26.118Z,11.11
2019-03-04T06:45:56.607Z,11.29
2019-03-04T06:48:27.148Z,11.43
2019-03-04T06:50:57.643Z,11.66
2019-03-04T06:53:40.531Z,11.83
2019-03-04T06:56:23.137Z,11.94
2019-03-04T06:58:59.613Z,11.99
2019-03-04T07:01:37.021Z,12.16
2019-03-04T07:04:10.802Z,12.21
2019-03-04T07:06:41.296Z,12.54
2019-03-04T07:09:11.907Z,12.85
2019-03-04T07:11:42.393Z,13.18
2019-03-04T07:14:12.938Z,13.58
2019-03-04T07:16:45.993Z,13.76
2019-03-04T07:19:16.957Z,13.57
2019-03-04T07:21:47.448Z,13.76
2019-03-04T07:24:18.020Z,13.81
2019-03-04T07:26:48.511Z,13.84
2019-03-04T07:29:21.880Z,13.58
2019-03-04T07:31:52.476Z,13.55
2019-03-04T07:34:22.962Z,13.48
2019-03-04T07:36:53.509Z,13.47
2019-03-04T07:39:26.619Z,13.40
2019-03-04T07:41:57.166Z,13.59
2019-03-04T07:44:27.775Z,13.58
2019-03-04T07:47:15.836Z,13.47
2019-03-04T07:49:49.343Z,13.58
2019-03-04T07:52:19.972Z,13.44
2019-03-04T07:54:50.596Z,13.63
2019-03-04T07:57:30.229Z,13.73
2019-03-04T08:00:14.194Z,13.81
2019-03-04T08:02:44.823Z,14.00
2019-03-04T08:05:15.312Z,14.03
2019-03-04T08:08:09.072Z,14.00
2019-03-04T08:11:03.322Z,14.19
2019-03-04T08:13:37.230Z,14.31
2019-03-04T08:16:09.324Z,14.45
2019-03-04T08:18:57.301Z,14.41
2019-03-04T08:21:27.966Z,14.52
2019-03-04T08:23:58.520Z,14.35
2019-03-04T08:26:46.639Z,14.34
2019-03-04T08:29:18.170Z,14.22
2019-03-04T08:32:01.115Z,14.21
2019-03-04T08:34:31.975Z,14.13
2019-03-04T08:37:05.558Z,14.16
2019-03-04T08:39:36.030Z,14.07
2019-03-04T08:42:09.595Z,14.14
2019-03-04T08:44:57.017Z,14.25
2019-03-04T08:47:45.410Z,14.45
2019-03-04T08:50:17.238Z,14.82
2019-03-04T08:52:47.793Z,15.14
2019-03-04T08:55:18.528Z,15.24
2019-03-04T08:57:49.023Z,15.09
2019-03-04T09:00:35.532Z,15.23
2019-03-04T09:03:21.524Z,15.26
2019-03-04T09:06:09.611Z,15.37
2019-03-04T09:08:40.192Z,15.93
2019-03-04T09:11:28.230Z,15.81
2019-03-04T09:13:58.872Z,15.69
2019-03-04T09:16:29.596Z,15.82
2019-03-04T09:19:00.141Z,16.10
2019-03-04T09:21:30.698Z,16.29
2019-03-04T09:24:02.629Z,16.40
2019-03-04T09:26:33.253Z,16.32
2019-03-04T09:29:03.786Z,16.45
2019-03-04T09:31:40.430Z,16.52
2019-03-04T09:34:23.235Z,16.55
2019-03-04T09:37:12.468Z,16.58
2019-03-04T09:40:00.772Z,16.43
2019-03-04T09:42:49.939Z,16.31
2019-03-04T09:45:20.425Z,16.31
2019-03-04T09:48:08.612Z,16.19
2019-03-04T09:50:57.138Z,16.19
2019-03-04T09:53:27.697Z,16.12
2019-03-04T09:55:58.225Z,16.27
2019-03-04T09:58:46.366Z,16.23
2019-03-04T10:01:20.278Z,16.62
2019-03-04T10:04:30.566Z,16.83
2019-03-04T10:07:09.977Z,16.86
2019-03-04T10:09:55.058Z,16.65
2019-03-04T10:12:53.182Z,16.46
2019-03-04T10:15:52.436Z,16.71
2019-03-04T10:18:42.335Z,16.65
2019-03-04T10:21:21.982Z,16.66
2019-03-04T10:24:10.850Z,16.94
2019-03-04T10:26:59.473Z,17.23
2019-03-04T10:29:45.056Z,17.43
2019-03-04T10:32:43.234Z,17.57
2019-03-04T10:35:19.593Z,17.59
2019-03-04T10:38:02.017Z,17.75
2019-03-04T10:40:52.670Z,17.83
2019-03-04T10:43:32.385Z,18.07
2019-03-04T10:46:32.145Z,18.24
2019-03-04T10:49:02.716Z,17.97
2019-03-04T10:51:33.345Z,17.63
2019-03-04T10:54:03.975Z,17.11
2019-03-04T10:56:34.618Z,17.00
2019-03-04T10:59:05.244Z,16.84
2019-03-04T11:01:35.873Z,16.79
2019-03-04T11:04:06.614Z,16.97
2019-03-04T11:06:37.245Z,17.19
2019-03-04T11:09:08.871Z,17.26
2019-03-04T11:11:39.840Z,17.31
2019-03-04T11:14:10.314Z,17.40
2019-03-04T11:16:40.879Z,17.65
2019-03-04T11:19:12.464Z,17.71
2019-03-04T11:21:43.094Z,17.67
2019-03-04T11:24:14.038Z,17.88
2019-03-04T11:26:44.777Z,18.00
2019-03-04T11:29:15.399Z,18.07
2019-03-04T11:31:45.864Z,17.96
2019-03-04T11:34:16.460Z,17.94
2019-03-04T11:36:47.101Z,17.93
2019-03-04T11:39:24.588Z,17.78
2019-03-04T11:41:55.210Z,17.75
2019-03-04T11:44:25.860Z,17.76
2019-03-04T11:46:56.389Z,17.65
2019-03-04T11:49:27.016Z,17.52
2019-03-04T11:51:57.879Z,17.51
2019-03-04T11:54:28.526Z,17.57
2019-03-04T11:56:59.124Z,17.63
2019-03-04T11:59:29.752Z,17.87
2019-03-04T12:02:00.494Z,17.95
2019-03-04T12:04:31.124Z,18.23
2019-03-04T12:07:01.794Z,18.31
2019-03-04T12:09:32.393Z,18.45
2019-03-04T12:12:02.941Z,18.45
2019-03-04T12:14:33.488Z,18.46
2019-03-04T12:17:04.113Z,18.40
2019-03-04T12:19:34.722Z,18.26
2019-03-04T12:22:05.281Z,18.21
2019-03-04T12:24:35.833Z,18.34
2019-03-04T12:27:06.394Z,18.33
2019-03-04T12:29:37.968Z,18.30
2019-03-04T12:32:09.834Z,18.14
2019-03-04T12:34:40.391Z,18.02
2019-03-04T12:37:10.868Z,17.84
2019-03-04T12:39:41.503Z,17.76
2019-03-04T12:42:12.056Z,17.62
2019-03-04T12:44:43.609Z,17.58
2019-03-04T12:47:16.340Z,17.57
2019-03-04T12:49:46.624Z,17.42
2019-03-04T12:52:17.251Z,17.33
2019-03-04T12:54:48.086Z,17.22
2019-03-04T12:57:18.716Z,17.01
2019-03-04T12:59:49.357Z,16.98
2019-03-04T13:02:19.991Z,16.96
2019-03-04T13:04:50.533Z,16.78
2019-03-04T13:07:21.082Z,16.63
2019-03-04T13:09:51.576Z,16.56
2019-03-04T13:12:22.321Z,16.48
2019-03-04T13:14:52.898Z,16.43
2019-03-04T13:17:23.476Z,16.37
2019-03-04T13:19:54.007Z,16.29
2019-03-04T13:22:25.673Z,16.32
2019-03-04T13:24:56.201Z,16.35
2019-03-04T13:27:26.730Z,16.44
2019-03-04T13:29:57.226Z,16.61
2019-03-04T13:32:27.699Z,16.71
2019-03-04T13:34:58.178Z,16.83
2019-03-04T13:37:28.696Z,16.88
2019-03-04T13:39:59.532Z,16.94
2019-03-04T13:42:30.031Z,16.94
2019-03-04T13:45:00.597Z,16.94
2019-03-04T13:47:31.334Z,16.93
2019-03-04T13:50:01.863Z,16.86
2019-03-04T13:52:32.492Z,16.81
2019-03-04T13:55:03.018Z,16.89
2019-03-04T13:57:33.517Z,16.91
2019-03-04T14:00:07.463Z,17.05
2019-03-04T14:02:38.301Z,17.36
2019-03-04T14:05:12.043Z,17.77
2019-03-04T14:07:42.741Z,17.95
2019-03-04T14:10:18.219Z,18.08
2019-03-04T14:12:48.830Z,17.94
2019-03-04T14:15:22.531Z,17.72
2019-03-04T14:17:53.272Z,17.64
2019-03-04T14:20:23.746Z,17.35
2019-03-04T14:22:57.653Z,17.20
2019-03-04T14:25:26.543Z,17.14
2019-03-04T14:27:57.132Z,17.08
2019-03-04T14:30:27.660Z,17.11
2019-03-04T14:32:58.208Z,16.98
2019-03-04T14:35:28.719Z,16.90
2019-03-04T14:37:59.269Z,16.80
2019-03-04T14:40:29.779Z,16.71
2019-03-04T14:43:00.310Z,16.77
2019-03-04T14:45:30.950Z,16.83
2019-03-04T14:48:01.581Z,16.79
2019-03-04T14:50:32.215Z,16.72
2019-03-04T14:53:02.745Z,16.72
2019-03-04T14:55:35.937Z,16.69
2019-03-04T14:58:06.576Z,16.65
2019-03-04T15:00:38.940Z,16.57
2019-03-04T15:03:19.159Z,16.44
2019-03-04T15:05:41.691Z,16.35
2019-03-04T15:08:12.177Z,16.21
2019-03-04T15:10:42.810Z,16.31
2019-03-04T15:13:14.876Z,16.33
2019-03-04T15:15:45.463Z,16.43
2019-03-04T15:18:15.938Z,16.39
2019-03-04T15:20:46.520Z,16.19
2019-03-04T15:23:17.097Z,16.16
2019-03-04T15:25:47.736Z,15.98
2019-03-04T15:28:20.115Z,15.84
2019-03-04T15:31:04.383Z,15.67
2019-03-04T15:33:34.954Z,15.48
2019-03-04T15:36:05.529Z,15.37
2019-03-04T15:38:36.058Z,15.23
2019-03-04T15:41:06.690Z,15.21
2019-03-04T15:43:37.426Z,15.25
2019-03-04T15:46:08.348Z,15.25
2019-03-04T15:48:38.894Z,15.20
2019-03-04T15:51:09.424Z,15.12
2019-03-04T15:53:40.013Z,15.09
2019-03-04T15:56:10.506Z,15.03
2019-03-04T15:58:40.974Z,14.95
2019-03-04T16:01:11.755Z,14.88
2019-03-04T16:03:42.327Z,14.82
2019-03-04T16:06:12.806Z,14.72
2019-03-04T16:08:44.041Z,14.65
2019-03-04T16:11:14.758Z,14.59
2019-03-04T16:13:52.590Z,14.47
2019-03-04T16:16:17.471Z,14.35
2019-03-04T16:18:48.208Z,14.22
2019-03-04T16:21:18.775Z,14.13
2019-03-04T16:23:49.287Z,14.09
2019-03-04T16:26:19.925Z,14.02
2019-03-04T16:28:50.667Z,13.95
2019-03-04T16:31:21.154Z,13.88
2019-03-04T16:33:51.842Z,13.87
2019-03-04T16:36:22.314Z,13.81
2019-03-04T16:38:52.886Z,13.77
2019-03-04T16:41:23.517Z,13.74
2019-03-04T16:43:54.159Z,13.70
2019-03-04T16:46:24.648Z,13.66
2019-03-04T16:48:55.220Z,13.59
2019-03-04T16:51:25.712Z,13.57
2019-03-04T16:53:56.281Z,13.53
2019-03-04T16:56:26.914Z,13.50
2019-03-04T16:58:57.444Z,13.39
2019-03-04T17:01:27.975Z,13.38
2019-03-04T17:03:59.638Z,13.35
2019-03-04T17:06:30.267Z,13.31
2019-03-04T17:09:00.893Z,13.27
2019-03-04T17:11:32.985Z,13.25
2019-03-04T17:14:04.725Z,13.23
2019-03-04T17:16:35.767Z,13.23
2019-03-04T17:19:06.395Z,13.21
2019-03-04T17:21:37.041Z,13.18
2019-03-04T17:24:07.666Z,13.18
2019-03-04T17:26:38.295Z,13.18
2019-03-04T17:29:08.874Z,13.20
2019-03-04T17:31:39.498Z,13.22
2019-03-04T17:34:10.094Z,13.24
2019-03-04T17:36:40.723Z,13.29
2019-03-04T17:39:11.463Z,13.31
2019-03-04T17:41:43.626Z,13.30
2019-03-04T17:44:22.621Z,13.28
2019-03-04T17:46:54.154Z,13.26
2019-03-04T17:49:24.776Z,13.21
2019-03-04T17:51:55.311Z,13.19
2019-03-04T17:54:26.013Z,13.19
2019-03-04T17:56:56.570Z,13.16
2019-03-04T17:59:27.118Z,13.13
2019-03-04T18:01:57.631Z,13.14
2019-03-04T18:04:28.181Z,13.12
2019-03-04T18:06:58.764Z,13.11
2019-03-04T18:09:29.294Z,13.08
2019-03-04T18:11:59.937Z,13.06
2019-03-04T18:14:30.430Z,13.03
2019-03-04T18:17:00.947Z,13.04
2019-03-04T18:19:31.529Z,13.05
2019-03-04T18:22:02.059Z,13.03
2019-03-04T18:24:32.687Z,13.01
2019-03-04T18:27:03.253Z,12.92
2019-03-04T18:29:39.609Z,12.87
2019-03-04T18:32:16.471Z,12.85
2019-03-04T18:34:50.267Z,12.81
2019-03-04T18:37:46.913Z,12.78
2019-03-04T18:40:29.816Z,12.73
2019-03-04T18:43:03.642Z,12.71
2019-03-04T18:45:43.289Z,12.68
2019-03-04T18:48:22.878Z,12.69
2019-03-04T18:50:53.434Z,12.63
2019-03-04T18:53:23.997Z,12.69
2019-03-04T18:55:54.568Z,12.76
2019-03-04T18:58:25.156Z,12.81
2019-03-04T19:00:55.780Z,12.82
2019-03-04T19:03:26.429Z,12.84
2019-03-04T19:05:57.057Z,12.58
2019-03-04T19:08:27.895Z,12.25
2019-03-04T19:10:58.435Z,11.95
2019-03-04T19:13:28.980Z,11.88
2019-03-04T19:15:59.697Z,11.60
2019-03-04T19:18:30.327Z,11.42
2019-03-04T19:21:00.868Z,11.26
2019-03-04T19:23:31.527Z,11.17
2019-03-04T19:26:02.127Z,11.04
2019-03-04T19:28:32.668Z,10.99
2019-03-04T19:31:03.290Z,10.90
2019-03-04T19:33:34.431Z,10.83
2019-03-04T19:36:05.060Z,10.79
2019-03-04T19:38:35.798Z,10.75
2019-03-04T19:41:07.562Z,10.73
2019-03-04T19:43:38.196Z,10.64
2019-03-04T19:46:08.929Z,10.56
2019-03-04T19:48:39.478Z,10.42
2019-03-04T19:51:10.097Z,10.40
2019-03-04T19:53:40.617Z,10.25
2019-03-04T19:56:11.301Z,10.16
2019-03-04T19:58:41.989Z,10.04
2019-03-04T20:01:12.629Z,9.79
2019-03-04T20:03:43.267Z,9.74
2019-03-04T20:06:15.226Z,9.64
2019-03-04T20:08:45.854Z,9.60
2019-03-04T20:11:16.481Z,9.45
2019-03-04T20:13:47.126Z,9.32
2019-03-04T20:16:17.850Z,9.22
2019-03-04T20:18:48.592Z,9.11
2019-03-04T20:21:19.184Z,8.98
2019-03-04T20:23:49.655Z,8.89
2019-03-04T20:26:20.282Z,8.79
2019-03-04T20:28:50.926Z,8.73
2019-03-04T20:31:21.466Z,8.65
2019-03-04T20:33:52.024Z,8.61
2019-03-04T20:36:22.611Z,8.55
2019-03-04T20:38:53.243Z,8.45
2019-03-04T20:41:23.939Z,8.42
2019-03-04T20:43:54.722Z,8.37
2019-03-04T20:46:25.252Z,8.33
2019-03-04T20:48:55.884Z,8.28
